sensor_id;sensor_type;location;lat;lon;timestamp;P1;durP1;ratioP1;P2;durP2;ratioP2
43682;SDS011;29285;52.128;21.060;2022-07-10T00:04:27;3.27;;;1.70;;
43682;SDS011;29285;52.128;21.060;2022-07-10T00:09:28;2.25;;;1.42;;
43682;SDS011;29285;52.128;21.060;2022-07-10T00:14:30;2.27;;;1.55;;
43682;SDS011;29285;52.128;21.060;2022-07-10T00:19:30;2.65;;;1.57;;
43682;SDS011;29285;52.128;21.060;2022-07-10T00:24:32;2.52;;;1.87;;
43682;SDS011;29285;52.128;21.060;2022-07-10T00:29:33;2.10;;;1.90;;
43682;SDS011;29285;52.128;21.060;2022-07-10T00:34:33;3.25;;;1.80;;
43682;SDS011;29285;52.128;21.060;2022-07-10T00:39:35;9.78;;;1.95;;
43682;SDS011;29285;52.128;21.060;2022-07-10T00:44:37;2.22;;;1.67;;
43682;SDS011;29285;52.128;21.060;2022-07-10T00:49:38;3.17;;;1.50;;
43682;SDS011;29285;52.128;21.060;2022-07-10T00:54:41;3.17;;;1.95;;
43682;SDS011;29285;52.128;21.060;2022-07-10T00:59:45;2.08;;;1.85;;
43682;SDS011;29285;52.128;21.060;2022-07-10T01:04:47;2.58;;;2.30;;
43682;SDS011;29285;52.128;21.060;2022-07-10T01:09:48;3.95;;;1.47;;
43682;SDS011;29285;52.128;21.060;2022-07-10T01:14:49;3.92;;;2.12;;
43682;SDS011;29285;52.128;21.060;2022-07-10T01:19:50;3.60;;;1.95;;
43682;SDS011;29285;52.128;21.060;2022-07-10T01:24:52;2.87;;;1.65;;
43682;SDS011;29285;52.128;21.060;2022-07-10T01:29:53;2.95;;;1.95;;
43682;SDS011;29285;52.128;21.060;2022-07-10T01:34:54;6.47;;;2.10;;
43682;SDS011;29285;52.128;21.060;2022-07-10T01:39:55;2.70;;;2.37;;
43682;SDS011;29285;52.128;21.060;2022-07-10T01:44:57;3.37;;;1.98;;
43682;SDS011;29285;52.128;21.060;2022-07-10T01:49:58;3.70;;;2.27;;
43682;SDS011;29285;52.128;21.060;2022-07-10T01:54:59;2.60;;;1.95;;
43682;SDS011;29285;52.128;21.060;2022-07-10T02:00:00;3.20;;;2.02;;
43682;SDS011;29285;52.128;21.060;2022-07-10T02:05:02;3.47;;;2.22;;
43682;SDS011;29285;52.128;21.060;2022-07-10T02:10:04;2.62;;;2.40;;
43682;SDS011;29285;52.128;21.060;2022-07-10T02:15:06;3.52;;;2.00;;
43682;SDS011;29285;52.128;21.060;2022-07-10T02:20:08;2.37;;;2.17;;
43682;SDS011;29285;52.128;21.060;2022-07-10T02:25:11;3.57;;;2.67;;
43682;SDS011;29285;52.128;21.060;2022-07-10T02:30:12;2.52;;;2.15;;
43682;SDS011;29285;52.128;21.060;2022-07-10T02:35:13;4.15;;;2.30;;
43682;SDS011;29285;52.128;21.060;2022-07-10T02:40:14;2.62;;;1.67;;
43682;SDS011;29285;52.128;21.060;2022-07-10T02:45:15;2.98;;;2.10;;
43682;SDS011;29285;52.128;21.060;2022-07-10T02:50:16;3.42;;;1.90;;
43682;SDS011;29285;52.128;21.060;2022-07-10T02:55:17;2.85;;;2.12;;
43682;SDS011;29285;52.128;21.060;2022-07-10T03:00:18;3.95;;;2.42;;
43682;SDS011;29285;52.128;21.060;2022-07-10T03:05:20;3.15;;;2.50;;
43682;SDS011;29285;52.128;21.060;2022-07-10T03:10:21;6.55;;;3.50;;
43682;SDS011;29285;52.128;21.060;2022-07-10T03:15:22;3.37;;;2.30;;
43682;SDS011;29285;52.128;21.060;2022-07-10T03:20:24;4.05;;;2.85;;
43682;SDS011;29285;52.128;21.060;2022-07-10T03:25:25;4.35;;;2.33;;
43682;SDS011;29285;52.128;21.060;2022-07-10T03:30:26;3.75;;;2.37;;
43682;SDS011;29285;52.128;21.060;2022-07-10T03:35:27;4.75;;;3.33;;
43682;SDS011;29285;52.128;21.060;2022-07-10T03:40:30;5.30;;;3.00;;
43682;SDS011;29285;52.128;21.060;2022-07-10T03:45:31;7.33;;;3.22;;
43682;SDS011;29285;52.128;21.060;2022-07-10T03:50:33;4.97;;;3.00;;
43682;SDS011;29285;52.128;21.060;2022-07-10T03:55:34;4.97;;;2.55;;
43682;SDS011;29285;52.128;21.060;2022-07-10T04:00:35;3.75;;;2.70;;
43682;SDS011;29285;52.128;21.060;2022-07-10T04:05:38;3.72;;;2.77;;
43682;SDS011;29285;52.128;21.060;2022-07-10T04:10:40;3.90;;;2.67;;
43682;SDS011;29285;52.128;21.060;2022-07-10T04:15:41;5.22;;;3.47;;
43682;SDS011;29285;52.128;21.060;2022-07-10T04:20:42;4.15;;;3.37;;
43682;SDS011;29285;52.128;21.060;2022-07-10T04:25:43;6.45;;;4.00;;
43682;SDS011;29285;52.128;21.060;2022-07-10T04:30:44;3.47;;;2.87;;
43682;SDS011;29285;52.128;21.060;2022-07-10T04:35:46;6.35;;;3.15;;
43682;SDS011;29285;52.128;21.060;2022-07-10T04:40:47;3.85;;;3.10;;
43682;SDS011;29285;52.128;21.060;2022-07-10T04:45:48;4.72;;;3.20;;
43682;SDS011;29285;52.128;21.060;2022-07-10T04:50:49;4.55;;;2.90;;
43682;SDS011;29285;52.128;21.060;2022-07-10T04:55:50;4.22;;;2.50;;
43682;SDS011;29285;52.128;21.060;2022-07-10T05:00:51;2.67;;;2.42;;
43682;SDS011;29285;52.128;21.060;2022-07-10T05:05:52;4.67;;;3.00;;
43682;SDS011;29285;52.128;21.060;2022-07-10T05:10:54;3.42;;;2.47;;
43682;SDS011;29285;52.128;21.060;2022-07-10T05:15:54;4.72;;;2.37;;
43682;SDS011;29285;52.128;21.060;2022-07-10T05:20:56;3.42;;;1.98;;
43682;SDS011;29285;52.128;21.060;2022-07-10T05:25:57;5.80;;;3.35;;
43682;SDS011;29285;52.128;21.060;2022-07-10T05:30:58;3.37;;;2.75;;
43682;SDS011;29285;52.128;21.060;2022-07-10T05:35:59;2.20;;;2.00;;
43682;SDS011;29285;52.128;21.060;2022-07-10T05:41:00;3.90;;;2.30;;
43682;SDS011;29285;52.128;21.060;2022-07-10T05:46:01;3.05;;;1.90;;
43682;SDS011;29285;52.128;21.060;2022-07-10T05:51:03;3.35;;;2.05;;
43682;SDS011;29285;52.128;21.060;2022-07-10T05:56:05;2.27;;;1.80;;
43682;SDS011;29285;52.128;21.060;2022-07-10T06:01:06;2.08;;;1.77;;
43682;SDS011;29285;52.128;21.060;2022-07-10T06:06:08;5.83;;;2.02;;
43682;SDS011;29285;52.128;21.060;2022-07-10T06:11:10;5.20;;;2.27;;
43682;SDS011;29285;52.128;21.060;2022-07-10T06:16:12;2.83;;;1.72;;
43682;SDS011;29285;52.128;21.060;2022-07-10T06:21:13;3.65;;;1.70;;
43682;SDS011;29285;52.128;21.060;2022-07-10T06:26:14;3.95;;;2.20;;
43682;SDS011;29285;52.128;21.060;2022-07-10T06:31:15;5.20;;;3.15;;
43682;SDS011;29285;52.128;21.060;2022-07-10T06:36:17;4.53;;;2.20;;
43682;SDS011;29285;52.128;21.060;2022-07-10T06:41:18;4.22;;;2.95;;
43682;SDS011;29285;52.128;21.060;2022-07-10T06:46:19;5.95;;;4.08;;
43682;SDS011;29285;52.128;21.060;2022-07-10T06:51:20;4.05;;;3.40;;
43682;SDS011;29285;52.128;21.060;2022-07-10T06:56:21;4.33;;;3.42;;
43682;SDS011;29285;52.128;21.060;2022-07-10T07:01:23;4.50;;;3.35;;
43682;SDS011;29285;52.128;21.060;2022-07-10T07:06:24;3.30;;;2.40;;
43682;SDS011;29285;52.128;21.060;2022-07-10T07:11:25;5.25;;;2.60;;
43682;SDS011;29285;52.128;21.060;2022-07-10T07:16:26;4.62;;;2.42;;
43682;SDS011;29285;52.128;21.060;2022-07-10T07:21:29;8.93;;;2.25;;
43682;SDS011;29285;52.128;21.060;2022-07-10T07:26:50;5.80;;;1.52;;
43682;SDS011;29285;52.128;21.060;2022-07-10T07:31:51;2.37;;;1.50;;
43682;SDS011;29285;52.128;21.060;2022-07-10T07:36:54;4.00;;;2.03;;
43682;SDS011;29285;52.128;21.060;2022-07-10T07:41:55;6.53;;;2.35;;
43682;SDS011;29285;52.128;21.060;2022-07-10T07:46:56;3.08;;;1.32;;
43682;SDS011;29285;52.128;21.060;2022-07-10T07:51:58;3.77;;;1.55;;
43682;SDS011;29285;52.128;21.060;2022-07-10T07:57:00;2.55;;;1.20;;
43682;SDS011;29285;52.128;21.060;2022-07-10T08:02:01;3.42;;;1.65;;
43682;SDS011;29285;52.128;21.060;2022-07-10T08:07:03;3.15;;;1.60;;
43682;SDS011;29285;52.128;21.060;2022-07-10T08:12:05;6.00;;;2.30;;
43682;SDS011;29285;52.128;21.060;2022-07-10T08:17:06;5.97;;;1.52;;
43682;SDS011;29285;52.128;21.060;2022-07-10T08:22:08;5.40;;;1.75;;
43682;SDS011;29285;52.128;21.060;2022-07-10T08:27:09;4.22;;;1.35;;
43682;SDS011;29285;52.128;21.060;2022-07-10T08:32:10;2.47;;;1.20;;
43682;SDS011;29285;52.128;21.060;2022-07-10T08:37:12;2.22;;;1.47;;
43682;SDS011;29285;52.128;21.060;2022-07-10T08:42:13;4.37;;;1.47;;
43682;SDS011;29285;52.128;21.060;2022-07-10T08:52:26;4.22;;;1.30;;
43682;SDS011;29285;52.128;21.060;2022-07-10T08:57:36;4.73;;;1.50;;
43682;SDS011;29285;52.128;21.060;2022-07-10T09:02:39;7.40;;;1.35;;
43682;SDS011;29285;52.128;21.060;2022-07-10T09:07:40;5.42;;;1.02;;
43682;SDS011;29285;52.128;21.060;2022-07-10T09:12:48;3.50;;;1.22;;
43682;SDS011;29285;52.128;21.060;2022-07-10T09:17:57;3.90;;;1.65;;
43682;SDS011;29285;52.128;21.060;2022-07-10T09:23:21;2.35;;;1.00;;
43682;SDS011;29285;52.128;21.060;2022-07-10T09:28:23;3.33;;;1.42;;
43682;SDS011;29285;52.128;21.060;2022-07-10T09:33:30;2.55;;;1.20;;
43682;SDS011;29285;52.128;21.060;2022-07-10T09:43:55;3.50;;;2.15;;
43682;SDS011;29285;52.128;21.060;2022-07-10T09:54:13;2.70;;;1.30;;
43682;SDS011;29285;52.128;21.060;2022-07-10T09:59:15;3.45;;;1.40;;
43682;SDS011;29285;52.128;21.060;2022-07-10T10:04:18;5.45;;;1.25;;
43682;SDS011;29285;52.128;21.060;2022-07-10T10:09:28;3.00;;;1.20;;
43682;SDS011;29285;52.128;21.060;2022-07-10T10:14:41;3.77;;;1.07;;
43682;SDS011;29285;52.128;21.060;2022-07-10T10:19:44;4.47;;;2.35;;
43682;SDS011;29285;52.128;21.060;2022-07-10T10:25:05;2.90;;;1.60;;
43682;SDS011;29285;52.128;21.060;2022-07-10T10:30:07;1.53;;;1.13;;
43682;SDS011;29285;52.128;21.060;2022-07-10T10:35:10;2.05;;;0.68;;
43682;SDS011;29285;52.128;21.060;2022-07-10T10:40:29;2.58;;;1.12;;
43682;SDS011;29285;52.128;21.060;2022-07-10T10:45:32;0.98;;;0.57;;
43682;SDS011;29285;52.128;21.060;2022-07-10T10:50:35;0.75;;;0.50;;
43682;SDS011;29285;52.128;21.060;2022-07-10T10:56:20;1.55;;;0.50;;
43682;SDS011;29285;52.128;21.060;2022-07-10T11:11:57;3.15;;;0.72;;
43682;SDS011;29285;52.128;21.060;2022-07-10T11:17:09;1.47;;;0.60;;
43682;SDS011;29285;52.128;21.060;2022-07-10T11:22:24;2.77;;;0.90;;
43682;SDS011;29285;52.128;21.060;2022-07-10T11:27:59;2.67;;;0.88;;
43682;SDS011;29285;52.128;21.060;2022-07-10T11:33:09;10.05;;;1.50;;
43682;SDS011;29285;52.128;21.060;2022-07-10T11:38:10;3.30;;;0.85;;
43682;SDS011;29285;52.128;21.060;2022-07-10T11:43:12;1.57;;;0.80;;
43682;SDS011;29285;52.128;21.060;2022-07-10T11:48:18;4.12;;;1.42;;
43682;SDS011;29285;52.128;21.060;2022-07-10T11:53:22;2.77;;;1.12;;
43682;SDS011;29285;52.128;21.060;2022-07-10T11:58:26;3.80;;;1.00;;
43682;SDS011;29285;52.128;21.060;2022-07-10T12:03:27;4.05;;;0.90;;
43682;SDS011;29285;52.128;21.060;2022-07-10T12:08:29;4.15;;;1.12;;
43682;SDS011;29285;52.128;21.060;2022-07-10T12:13:30;3.45;;;1.10;;
43682;SDS011;29285;52.128;21.060;2022-07-10T12:18:31;1.95;;;0.70;;
43682;SDS011;29285;52.128;21.060;2022-07-10T12:23:34;1.30;;;0.50;;
43682;SDS011;29285;52.128;21.060;2022-07-10T12:28:53;1.45;;;0.45;;
43682;SDS011;29285;52.128;21.060;2022-07-10T12:33:59;1.17;;;0.30;;
43682;SDS011;29285;52.128;21.060;2022-07-10T12:39:03;2.12;;;0.70;;
43682;SDS011;29285;52.128;21.060;2022-07-10T12:44:04;1.55;;;0.30;;
43682;SDS011;29285;52.128;21.060;2022-07-10T12:49:07;2.42;;;0.60;;
43682;SDS011;29285;52.128;21.060;2022-07-10T12:59:35;3.45;;;0.85;;
43682;SDS011;29285;52.128;21.060;2022-07-10T13:04:37;3.35;;;0.93;;
43682;SDS011;29285;52.128;21.060;2022-07-10T13:09:39;2.75;;;0.80;;
43682;SDS011;29285;52.128;21.060;2022-07-10T13:14:42;3.22;;;0.55;;
43682;SDS011;29285;52.128;21.060;2022-07-10T13:19:43;3.42;;;0.82;;
43682;SDS011;29285;52.128;21.060;2022-07-10T13:24:44;2.40;;;0.75;;
43682;SDS011;29285;52.128;21.060;2022-07-10T13:29:45;2.58;;;0.90;;
43682;SDS011;29285;52.128;21.060;2022-07-10T13:34:46;3.40;;;1.02;;
43682;SDS011;29285;52.128;21.060;2022-07-10T13:39:47;1.27;;;0.55;;
43682;SDS011;29285;52.128;21.060;2022-07-10T13:44:48;1.40;;;0.50;;
43682;SDS011;29285;52.128;21.060;2022-07-10T13:49:49;1.47;;;0.57;;
43682;SDS011;29285;52.128;21.060;2022-07-10T13:54:50;2.63;;;0.67;;
43682;SDS011;29285;52.128;21.060;2022-07-10T13:59:52;5.08;;;0.80;;
43682;SDS011;29285;52.128;21.060;2022-07-10T14:04:54;2.12;;;0.95;;
43682;SDS011;29285;52.128;21.060;2022-07-10T14:09:55;6.37;;;1.65;;
43682;SDS011;29285;52.128;21.060;2022-07-10T16:22:09;1.00;;;0.50;;
43682;SDS011;29285;52.128;21.060;2022-07-10T16:27:10;1.55;;;0.50;;
43682;SDS011;29285;52.128;21.060;2022-07-10T16:32:11;1.12;;;0.40;;
43682;SDS011;29285;52.128;21.060;2022-07-10T16:37:12;0.78;;;0.50;;
43682;SDS011;29285;52.128;21.060;2022-07-10T16:42:13;0.65;;;0.30;;
43682;SDS011;29285;52.128;21.060;2022-07-10T16:47:14;0.80;;;0.40;;
43682;SDS011;29285;52.128;21.060;2022-07-10T16:52:16;1.32;;;0.30;;
43682;SDS011;29285;52.128;21.060;2022-07-10T16:57:17;1.07;;;0.30;;
43682;SDS011;29285;52.128;21.060;2022-07-10T17:02:18;0.53;;;0.53;;
43682;SDS011;29285;52.128;21.060;2022-07-10T17:07:19;1.47;;;0.30;;
43682;SDS011;29285;52.128;21.060;2022-07-10T17:12:20;3.70;;;0.47;;
43682;SDS011;29285;52.128;21.060;2022-07-10T17:17:21;0.65;;;0.40;;
43682;SDS011;29285;52.128;21.060;2022-07-10T17:22:22;0.50;;;0.28;;
43682;SDS011;29285;52.128;21.060;2022-07-10T17:27:23;2.58;;;0.50;;
43682;SDS011;29285;52.128;21.060;2022-07-10T17:32:25;1.15;;;0.60;;
43682;SDS011;29285;52.128;21.060;2022-07-10T17:37:26;0.98;;;0.50;;
43682;SDS011;29285;52.128;21.060;2022-07-10T17:42:27;0.75;;;0.62;;
43682;SDS011;29285;52.128;21.060;2022-07-10T17:47:28;1.30;;;0.70;;
43682;SDS011;29285;52.128;21.060;2022-07-10T17:52:29;1.25;;;0.60;;
43682;SDS011;29285;52.128;21.060;2022-07-10T17:57:30;0.72;;;0.72;;
43682;SDS011;29285;52.128;21.060;2022-07-10T18:02:31;0.62;;;0.60;;
43682;SDS011;29285;52.128;21.060;2022-07-10T18:07:33;1.55;;;0.62;;
43682;SDS011;29285;52.128;21.060;2022-07-10T18:12:35;0.53;;;0.30;;
43682;SDS011;29285;52.128;21.060;2022-07-10T18:17:36;2.33;;;0.50;;
43682;SDS011;29285;52.128;21.060;2022-07-10T18:22:37;0.98;;;0.57;;
43682;SDS011;29285;52.128;21.060;2022-07-10T18:27:38;1.00;;;0.65;;
43682;SDS011;29285;52.128;21.060;2022-07-10T18:32:39;1.12;;;0.50;;
43682;SDS011;29285;52.128;21.060;2022-07-10T18:37:59;1.45;;;0.70;;
43682;SDS011;29285;52.128;21.060;2022-07-10T18:43:00;1.12;;;0.70;;
43682;SDS011;29285;52.128;21.060;2022-07-10T18:48:03;1.32;;;0.70;;
43682;SDS011;29285;52.128;21.060;2022-07-10T18:53:05;1.67;;;0.85;;
43682;SDS011;29285;52.128;21.060;2022-07-10T18:58:06;1.17;;;0.68;;
43682;SDS011;29285;52.128;21.060;2022-07-10T19:03:09;1.55;;;1.12;;
43682;SDS011;29285;52.128;21.060;2022-07-10T19:08:10;1.25;;;0.62;;
43682;SDS011;29285;52.128;21.060;2022-07-10T19:13:11;1.27;;;0.68;;
43682;SDS011;29285;52.128;21.060;2022-07-10T19:18:12;1.10;;;0.80;;
43682;SDS011;29285;52.128;21.060;2022-07-10T19:23:13;1.45;;;1.00;;
43682;SDS011;29285;52.128;21.060;2022-07-10T19:28:14;1.52;;;0.95;;
43682;SDS011;29285;52.128;21.060;2022-07-10T19:33:15;1.95;;;1.00;;
43682;SDS011;29285;52.128;21.060;2022-07-10T19:38:16;1.40;;;0.90;;
43682;SDS011;29285;52.128;21.060;2022-07-10T19:43:20;1.00;;;0.90;;
43682;SDS011;29285;52.128;21.060;2022-07-10T19:48:21;4.00;;;0.90;;
43682;SDS011;29285;52.128;21.060;2022-07-10T19:53:22;3.42;;;0.75;;
43682;SDS011;29285;52.128;21.060;2022-07-10T19:58:23;0.88;;;0.80;;
43682;SDS011;29285;52.128;21.060;2022-07-10T20:03:24;1.17;;;0.70;;
43682;SDS011;29285;52.128;21.060;2022-07-10T20:08:26;0.80;;;0.80;;
43682;SDS011;29285;52.128;21.060;2022-07-10T20:13:27;1.20;;;0.95;;
43682;SDS011;29285;52.128;21.060;2022-07-10T20:18:28;1.32;;;0.80;;
43682;SDS011;29285;52.128;21.060;2022-07-10T20:23:29;1.47;;;1.10;;
43682;SDS011;29285;52.128;21.060;2022-07-10T20:28:33;1.95;;;0.80;;
43682;SDS011;29285;52.128;21.060;2022-07-10T20:33:34;1.80;;;1.37;;
43682;SDS011;29285;52.128;21.060;2022-07-10T20:38:39;1.20;;;1.10;;
43682;SDS011;29285;52.128;21.060;2022-07-10T20:43:41;1.87;;;1.00;;
43682;SDS011;29285;52.128;21.060;2022-07-10T20:48:42;3.63;;;0.87;;
43682;SDS011;29285;52.128;21.060;2022-07-10T20:53:43;2.37;;;0.85;;
43682;SDS011;29285;52.128;21.060;2022-07-10T20:58:44;1.12;;;1.00;;
43682;SDS011;29285;52.128;21.060;2022-07-10T21:03:45;0.95;;;0.75;;
43682;SDS011;29285;52.128;21.060;2022-07-10T21:08:46;2.30;;;1.02;;
43682;SDS011;29285;52.128;21.060;2022-07-10T21:13:47;2.35;;;1.05;;
43682;SDS011;29285;52.128;21.060;2022-07-10T21:18:49;2.00;;;1.12;;
43682;SDS011;29285;52.128;21.060;2022-07-10T21:23:50;2.62;;;1.40;;
43682;SDS011;29285;52.128;21.060;2022-07-10T21:28:51;3.65;;;1.60;;
43682;SDS011;29285;52.128;21.060;2022-07-10T21:33:52;11.20;;;1.30;;
43682;SDS011;29285;52.128;21.060;2022-07-10T21:38:54;4.47;;;1.20;;
43682;SDS011;29285;52.128;21.060;2022-07-10T21:43:55;2.97;;;1.30;;
43682;SDS011;29285;52.128;21.060;2022-07-10T21:48:57;4.72;;;1.30;;
43682;SDS011;29285;52.128;21.060;2022-07-10T21:53:58;3.05;;;1.42;;
43682;SDS011;29285;52.128;21.060;2022-07-10T21:58:58;4.00;;;1.30;;
43682;SDS011;29285;52.128;21.060;2022-07-10T22:04:00;3.35;;;1.52;;
43682;SDS011;29285;52.128;21.060;2022-07-10T22:09:01;2.42;;;1.17;;
43682;SDS011;29285;52.128;21.060;2022-07-10T22:14:02;2.08;;;1.30;;
43682;SDS011;29285;52.128;21.060;2022-07-10T22:19:03;2.43;;;1.60;;
43682;SDS011;29285;52.128;21.060;2022-07-10T22:24:05;6.17;;;1.25;;
43682;SDS011;29285;52.128;21.060;2022-07-10T22:29:06;3.15;;;1.65;;
43682;SDS011;29285;52.128;21.060;2022-07-10T22:34:07;1.82;;;1.32;;
43682;SDS011;29285;52.128;21.060;2022-07-10T22:39:08;4.08;;;2.10;;
43682;SDS011;29285;52.128;21.060;2022-07-10T22:44:09;2.65;;;1.80;;
43682;SDS011;29285;52.128;21.060;2022-07-10T22:49:11;2.45;;;1.17;;
43682;SDS011;29285;52.128;21.060;2022-07-10T22:54:12;2.45;;;1.57;;
43682;SDS011;29285;52.128;21.060;2022-07-10T22:59:13;3.08;;;1.12;;
43682;SDS011;29285;52.128;21.060;2022-07-10T23:04:18;2.87;;;1.22;;
43682;SDS011;29285;52.128;21.060;2022-07-10T23:09:19;2.37;;;1.53;;
43682;SDS011;29285;52.128;21.060;2022-07-10T23:14:20;1.45;;;1.35;;
43682;SDS011;29285;52.128;21.060;2022-07-10T23:19:21;5.03;;;1.45;;
43682;SDS011;29285;52.128;21.060;2022-07-10T23:24:22;2.40;;;1.40;;
43682;SDS011;29285;52.128;21.060;2022-07-10T23:29:23;4.27;;;1.33;;
43682;SDS011;29285;52.128;21.060;2022-07-10T23:34:25;4.97;;;1.65;;
43682;SDS011;29285;52.128;21.060;2022-07-10T23:39:28;3.90;;;1.40;;
43682;SDS011;29285;52.128;21.060;2022-07-10T23:44:29;19.90;;;2.95;;
43682;SDS011;29285;52.128;21.060;2022-07-10T23:49:30;1.85;;;1.50;;
43682;SDS011;29285;52.128;21.060;2022-07-10T23:54:51;3.47;;;1.52;;
43682;SDS011;29285;52.128;21.060;2022-07-10T23:59:52;2.42;;;1.30;;
